Time;durP1;ratioP1;P1;durP2;ratioP2;P2;SDS_P1;SDS_P2;PMS_P1;PMS_P2;Temp;Humidity;BMP_temperature;BMP_pressure;BME280_temperature;BME280_humidity;BME280_pressure;Samples;Min_cycle;Max_cycle;Signal;HPM_P1;HPM_P2
2022/01/01 00:00:11;;;;;;;25.70;19.32;;;;;;;4.51;100.00;98694.98;1693455;83;21093;-76
2022/01/01 00:02:41;;;;;;;26.50;17.77;;;;;;;4.52;100.00;98690.47;1694131;83;20988;-75
2022/01/01 00:05:08;;;;;;;25.62;20.35;;;;;;;4.52;100.00;98679.30;1711985;83;21045;-78
2022/01/01 00:07:35;;;;;;;23.10;18.55;;;;;;;4.53;100.00;98682.27;1709688;83;21008;-76
2022/01/01 00:10:03;;;;;;;27.35;20.68;;;;;;;4.56;100.00;98685.77;1668355;84;21022;-78
2022/01/01 00:12:31;;;;;;;25.25;17.85;;;;;;;4.58;100.00;98681.55;1676892;85;21081;-77
2022/01/01 00:14:58;;;;;;;22.80;18.80;;;;;;;4.59;100.00;98673.34;1689874;84;21068;-76
2022/01/01 00:17:24;;;;;;;22.42;17.57;;;;;;;4.62;100.00;98676.85;1703517;84;21118;-76
2022/01/01 00:19:52;;;;;;;21.85;17.75;;;;;;;4.65;100.00;98670.26;1678477;83;22390;-74
2022/01/01 00:22:19;;;;;;;28.65;18.48;;;;;;;4.63;100.00;98673.67;1680203;85;21478;-72
2022/01/01 00:24:45;;;;;;;29.27;21.20;;;;;;;4.62;100.00;98672.05;1656227;85;21047;-73
2022/01/01 00:27:11;;;;;;;21.60;19.12;;;;;;;4.63;100.00;98675.81;1708861;84;21186;-70
2022/01/01 00:29:38;;;;;;;29.27;19.98;;;;;;;4.63;100.00;98673.15;1686450;84;21089;-72
2022/01/01 00:32:05;;;;;;;26.97;19.25;;;;;;;4.61;100.00;98665.91;1707947;83;21061;-72
2022/01/01 00:34:34;;;;;;;23.55;19.90;;;;;;;4.65;100.00;98651.07;1665615;84;21433;-70
2022/01/01 00:37:01;;;;;;;25.25;19.87;;;;;;;4.70;100.00;98656.50;1707851;84;21058;-74
2022/01/01 00:39:28;;;;;;;22.42;17.82;;;;;;;4.75;100.00;98648.60;1685495;84;21029;-71
2022/01/01 00:41:56;;;;;;;25.27;20.68;;;;;;;4.78;100.00;98650.00;1707553;84;21100;-70
2022/01/01 00:44:24;;;;;;;29.27;22.50;;;;;;;4.78;100.00;98642.82;1708119;83;20981;-68
2022/01/01 00:46:50;;;;;;;26.82;18.65;;;;;;;4.80;100.00;98646.56;1708140;83;21135;-68
2022/01/01 00:49:17;;;;;;;24.57;18.20;;;;;;;4.79;100.00;98639.64;1685479;83;21028;-71
2022/01/01 00:51:43;;;;;;;20.77;16.50;;;;;;;4.80;100.00;98634.57;1708029;83;21033;-71
2022/01/01 00:54:10;;;;;;;19.52;16.50;;;;;;;4.81;100.00;98633.53;1708333;84;21018;-72
2022/01/01 00:56:38;;;;;;;19.75;14.90;;;;;;;4.88;100.00;98634.21;1708129;83;21116;-73
2022/01/01 00:59:04;;;;;;;17.15;14.23;;;;;;;4.93;100.00;98616.98;1692886;83;21515;-88
2022/01/01 01:01:32;;;;;;;18.55;14.58;;;;;;;4.98;100.00;98614.94;1708649;83;21003;-84
2022/01/01 01:04:00;;;;;;;15.48;13.85;;;;;;;5.02;100.00;98614.73;1708882;84;20960;-85
2022/01/01 01:06:26;;;;;;;15.30;11.65;;;;;;;5.03;100.00;98605.18;1708747;84;21505;-85
2022/01/01 01:08:58;;;;;;;12.10;10.38;;;;;;;5.05;100.00;98608.39;1731086;82;21522;-89
2022/01/01 01:11:27;;;;;;;11.28;10.05;;;;;;;5.06;100.00;98608.69;1706672;84;21096;-86
2022/01/01 01:14:00;;;;;;;9.65;8.65;;;;;;;5.07;100.00;98614.30;1705478;84;21656;-84
2022/01/01 01:16:27;;;;;;;8.93;6.65;;;;;;;5.10;100.00;98606.34;1702196;84;20985;-87
2022/01/01 01:18:54;;;;;;;10.10;7.05;;;;;;;5.15;100.00;98603.76;1706266;84;21046;-85
2022/01/01 01:21:22;;;;;;;11.08;7.60;;;;;;;5.19;100.00;98593.70;1708209;83;21099;-85
2022/01/01 01:23:51;;;;;;;11.00;7.12;;;;;;;5.23;100.00;98602.83;1706942;84;21503;-84
2022/01/01 01:26:17;;;;;;;10.20;7.83;;;;;;;5.29;100.00;98590.39;1707037;84;21583;-86
2022/01/01 01:28:48;;;;;;;10.35;8.25;;;;;;;5.37;100.00;98592.64;1706774;84;21052;-83
2022/01/01 01:31:14;;;;;;;9.20;7.08;;;;;;;5.42;100.00;98589.28;1706517;83;21111;-84
2022/01/01 01:33:42;;;;;;;7.95;6.33;;;;;;;5.47;100.00;98586.66;1707031;83;20980;-84
2022/01/01 01:36:11;;;;;;;8.65;5.97;;;;;;;5.53;100.00;98584.36;1681378;83;21079;-83
2022/01/01 01:38:38;;;;;;;6.10;5.50;;;;;;;5.54;100.00;98573.98;1683573;84;21522;-82
2022/01/01 01:41:05;;;;;;;5.08;4.42;;;;;;;5.56;100.00;98586.00;1686314;84;21042;-85
2022/01/01 01:43:33;;;;;;;5.72;4.75;;;;;;;5.62;100.00;98581.03;1707177;84;21052;-84
2022/01/01 01:46:09;;;;;;;6.20;4.95;;;;;;;5.69;100.00;98578.20;1707034;84;21021;-87
2022/01/01 01:48:37;;;;;;;5.95;5.35;;;;;;;5.75;100.00;98571.09;1706143;84;21064;-84
2022/01/01 01:51:04;;;;;;;7.50;6.30;;;;;;;5.77;100.00;98547.63;1706382;84;21572;-85
2022/01/01 01:53:30;;;;;;;5.53;4.92;;;;;;;5.80;100.00;98549.30;1706879;84;21036;-87
2022/01/01 01:55:58;;;;;;;4.53;4.03;;;;;;;5.84;100.00;98553.59;1707783;84;21019;-80
2022/01/01 01:58:24;;;;;;;7.83;4.42;;;;;;;5.86;100.00;98550.14;1709593;82;21003;-83
2022/01/01 02:03:18;;;;;;;4.85;4.45;;;;;;;5.92;100.00;98543.86;1701454;82;20991;-82
2022/01/01 02:05:44;;;;;;;5.60;5.10;;;;;;;5.94;100.00;98540.42;1679303;84;21017;-84
2022/01/01 02:08:12;;;;;;;5.78;5.28;;;;;;;5.94;100.00;98542.57;1683869;84;21052;-87
2022/01/01 02:10:38;;;;;;;4.10;3.70;;;;;;;5.99;100.00;98534.62;1686526;84;21525;-82
2022/01/01 02:13:11;;;;;;;4.20;3.83;;;;;;;6.02;100.00;98556.80;1691401;82;21120;-88
2022/01/01 02:18:02;;;;;;;12.07;7.37;;;;;;;6.09;100.00;98540.62;1675246;84;20963;-83
2022/01/01 02:20:29;;;;;;;4.83;4.37;;;;;;;6.12;100.00;98528.91;1686245;84;21012;-84
2022/01/01 02:23:00;;;;;;;4.55;4.15;;;;;;;6.16;100.00;98524.39;1680505;85;21075;-84
2022/01/01 02:25:24;;;;;;;4.83;4.33;;;;;;;6.20;100.00;98530.84;1678851;85;21522;-86
2022/01/01 02:27:52;;;;;;;4.17;3.77;;;;;;;6.23;100.00;98530.36;1679668;84;21028;-82
2022/01/01 02:30:19;;;;;;;4.53;4.12;;;;;;;6.28;100.00;98522.41;1699908;84;21079;-84
2022/01/01 02:32:45;;;;;;;4.90;4.45;;;;;;;6.33;100.00;98528.58;1708527;84;21841;-82
2022/01/01 02:35:15;;;;;;;6.15;5.47;;;;;;;6.35;100.00;98526.48;1708505;82;21036;-81
2022/01/01 02:37:41;;;;;;;5.60;4.85;;;;;;;6.35;100.00;98523.81;1708484;82;21063;-84
2022/01/01 02:40:10;;;;;;;8.35;4.87;;;;;;;6.36;100.00;98528.11;1708466;82;21158;-80
2022/01/01 02:42:38;;;;;;;5.10;4.50;;;;;;;6.38;100.00;98523.86;1708961;84;20979;-85
2022/01/01 02:45:08;;;;;;;5.05;4.55;;;;;;;6.42;100.00;98524.97;1708627;82;20953;-80
2022/01/01 02:47:37;;;;;;;4.25;3.95;;;;;;;6.44;100.00;98512.95;1708839;84;21039;-78
2022/01/01 02:50:05;;;;;;;5.75;5.25;;;;;;;6.46;100.00;98521.53;1708406;82;21179;-78
2022/01/01 02:52:33;;;;;;;4.33;4.03;;;;;;;6.50;100.00;98511.95;1705571;84;21004;-83
2022/01/01 02:54:59;;;;;;;5.03;4.53;;;;;;;6.55;100.00;98513.34;1708636;83;21665;-83
2022/01/01 02:57:25;;;;;;;5.42;5.00;;;;;;;6.60;100.00;98520.59;1708744;83;21007;-79
2022/01/01 02:59:53;;;;;;;5.05;4.53;;;;;;;6.67;100.00;98509.16;1708298;83;20992;-86
2022/01/01 03:02:21;;;;;;;6.35;4.60;;;;;;;6.73;100.00;98510.02;1709898;83;21496;-84
2022/01/01 03:04:48;;;;;;;4.42;4.03;;;;;;;6.78;100.00;98520.75;1709091;84;21569;-84
2022/01/01 03:07:14;;;;;;;5.83;4.78;;;;;;;6.80;100.00;98511.97;1696695;82;21048;-82
2022/01/01 03:09:45;;;;;;;6.65;4.67;;;;;;;6.83;100.00;98506.91;1678247;84;21533;-82
2022/01/01 03:12:14;;;;;;;5.78;5.28;;;;;;;6.89;100.00;98510.44;1706595;84;20994;-78
2022/01/01 03:14:41;;;;;;;4.25;3.85;;;;;;;6.94;100.00;98517.97;1686233;84;21097;-80
2022/01/01 03:17:08;;;;;;;4.22;3.83;;;;;;;6.99;100.00;98510.00;1700183;84;21015;-77
2022/01/01 03:19:34;;;;;;;4.08;3.67;;;;;;;7.06;100.00;98500.94;1677132;85;21004;-77
2022/01/01 03:22:03;;;;;;;5.00;4.53;;;;;;;7.11;100.00;98507.13;1705736;84;21014;-81
2022/01/01 03:24:31;;;;;;;5.25;4.67;;;;;;;7.16;100.00;98511.70;1686685;84;21029;-79
2022/01/01 03:26:57;;;;;;;4.95;4.45;;;;;;;7.21;100.00;98505.06;1686518;84;21091;-81
2022/01/01 03:29:28;;;;;;;5.55;5.00;;;;;;;7.26;100.00;98502.42;1688160;84;20972;-79
2022/01/01 03:31:52;;;;;;;5.53;5.00;;;;;;;7.28;100.00;98500.31;1707162;83;20998;-78
2022/01/01 03:34:21;;;;;;;6.22;5.33;;;;;;;7.32;100.00;98507.56;1687679;84;21104;-76
2022/01/01 03:36:47;;;;;;;4.95;4.45;;;;;;;7.34;100.00;98527.34;1705345;84;21079;-78
2022/01/01 03:39:15;;;;;;;5.45;4.95;;;;;;;7.37;100.00;98508.13;1691504;83;21521;-79
2022/01/01 03:41:42;;;;;;;8.35;6.17;;;;;;;7.42;100.00;98518.86;1703290;83;21048;-78
2022/01/01 03:44:08;;;;;;;6.25;5.72;;;;;;;7.45;100.00;98519.14;1707181;83;20954;-78
2022/01/01 03:46:36;;;;;;;5.53;5.00;;;;;;;7.48;100.00;98518.36;1691102;84;21337;-81
2022/01/01 03:49:02;;;;;;;6.55;5.90;;;;;;;7.51;100.00;98536.56;1677532;85;21063;-80
2022/01/01 03:51:29;;;;;;;5.62;5.12;;;;;;;7.52;100.00;98530.15;1696760;84;21911;-82
2022/01/01 03:53:55;;;;;;;7.33;6.10;;;;;;;7.55;100.00;98514.91;1707025;83;21347;-83
2022/01/01 03:56:21;;;;;;;7.95;7.05;;;;;;;7.56;100.00;98522.69;1685540;84;21063;-84
2022/01/01 03:58:48;;;;;;;6.37;5.78;;;;;;;7.59;100.00;98532.05;1684652;83;21099;-83
2022/01/01 04:01:15;;;;;;;6.37;5.75;;;;;;;7.61;100.00;98529.41;1698311;84;21096;-83
2022/01/01 04:03:43;;;;;;;7.45;6.53;;;;;;;7.62;100.00;98532.36;1693479;84;21121;-83
2022/01/01 04:06:10;;;;;;;7.53;6.83;;;;;;;7.64;100.00;98527.54;1685300;84;21545;-82
2022/01/01 04:08:39;;;;;;;8.88;6.70;;;;;;;7.65;100.00;98539.05;1649231;86;20973;-85
2022/01/01 04:11:05;;;;;;;8.18;7.37;;;;;;;7.65;100.00;98540.39;1678322;84;21110;-86
2022/01/01 04:13:32;;;;;;;8.08;7.03;;;;;;;7.63;100.00;98531.27;1693434;84;21027;-82
2022/01/01 04:15:59;;;;;;;8.28;7.50;;;;;;;7.64;100.00;98546.27;1687260;84;21014;-78
2022/01/01 04:18:37;;;;;;;7.95;7.08;;;;;;;7.65;100.00;98537.71;1690682;84;20999;-81
2022/01/01 04:20:55;;;;;;;10.13;6.37;;;;;;;7.67;100.00;98542.28;1699576;84;21601;-83
2022/01/01 04:23:23;;;;;;;7.72;6.70;;;;;;;7.67;100.00;98565.03;1734846;82;21088;-82
2022/01/01 04:25:50;;;;;;;7.67;6.87;;;;;;;7.70;100.00;98556.47;1706575;82;20992;-83
2022/01/01 04:28:16;;;;;;;7.90;7.20;;;;;;;7.71;100.00;98552.21;1692426;84;21528;-78
2022/01/01 04:30:43;;;;;;;6.62;6.10;;;;;;;7.72;100.00;98554.36;1706895;84;21042;-76
2022/01/01 04:33:11;;;;;;;7.85;7.05;;;;;;;7.72;100.00;98559.71;1686213;84;21519;-78
2022/01/01 04:35:37;;;;;;;8.40;7.42;;;;;;;7.74;100.00;98541.51;1686298;84;21066;-85
2022/01/01 04:38:06;;;;;;;7.28;6.55;;;;;;;7.73;100.00;98554.08;1678890;84;21053;-84
2022/01/01 04:40:32;;;;;;;6.95;6.28;;;;;;;7.73;100.00;98557.28;1677121;85;22260;-80
2022/01/01 04:42:58;;;;;;;6.83;6.12;;;;;;;7.75;100.00;98557.84;1693068;84;21024;-79
2022/01/01 04:45:25;;;;;;;7.87;6.80;;;;;;;7.75;100.00;98559.19;1693371;84;21076;-85
2022/01/01 04:47:52;;;;;;;8.33;6.55;;;;;;;7.76;100.00;98556.78;1646208;85;21044;-82
2022/01/01 04:50:19;;;;;;;6.62;6.03;;;;;;;7.75;100.00;98557.31;1646694;85;21023;-79
2022/01/01 04:52:48;;;;;;;6.03;5.45;;;;;;;7.76;100.00;98552.77;1706730;84;21100;-78
2022/01/01 04:55:14;;;;;;;7.17;6.50;;;;;;;7.75;100.00;98570.70;1706811;84;21560;-81
2022/01/01 04:57:41;;;;;;;6.72;6.03;;;;;;;7.78;100.00;98564.00;1706640;84;20994;-78
2022/01/01 05:00:09;;;;;;;6.87;5.65;;;;;;;7.77;100.00;98565.09;1686048;84;21006;-80
2022/01/01 05:02:36;;;;;;;6.12;5.53;;;;;;;7.75;100.00;98569.36;1686476;84;21077;-79
2022/01/01 05:05:05;;;;;;;6.35;5.33;;;;;;;7.75;100.00;98574.70;1707145;83;21042;-78
2022/01/01 05:07:32;;;;;;;7.00;6.30;;;;;;;7.72;100.00;98577.11;1659363;85;21501;-79
2022/01/01 05:09:59;;;;;;;5.53;5.03;;;;;;;7.69;100.00;98573.06;1688230;84;21050;-80
2022/01/01 05:12:26;;;;;;;6.67;6.08;;;;;;;7.69;100.00;98572.25;1686941;84;21116;-80
2022/01/01 05:14:53;;;;;;;6.08;5.47;;;;;;;7.67;100.00;98571.19;1708628;84;21013;-81
2022/01/01 05:17:20;;;;;;;6.72;4.72;;;;;;;7.66;100.00;98574.92;1685856;84;21035;-84
2022/01/01 05:19:46;;;;;;;5.03;4.33;;;;;;;7.66;100.00;98584.30;1658750;84;21040;-81
2022/01/01 05:22:13;;;;;;;4.37;3.98;;;;;;;7.67;100.00;98579.22;1708376;83;21073;-79
2022/01/01 05:24:39;;;;;;;4.67;4.28;;;;;;;7.68;100.00;98608.09;1697649;84;21533;-79
2022/01/01 05:27:07;;;;;;;4.28;3.85;;;;;;;7.67;100.00;98614.01;1653608;85;21032;-79
2022/01/01 05:29:34;;;;;;;4.33;3.92;;;;;;;7.68;100.00;98609.44;1691450;84;21153;-79
2022/01/01 05:32:01;;;;;;;6.35;3.72;;;;;;;7.68;100.00;98620.14;1686235;84;21019;-78
2022/01/01 05:34:27;;;;;;;3.95;3.40;;;;;;;7.66;100.00;98619.60;1703798;84;21023;-78
2022/01/01 05:36:55;;;;;;;3.20;2.95;;;;;;;7.66;100.00;98619.08;1733588;82;21261;-80
2022/01/01 05:39:22;;;;;;;2.42;2.20;;;;;;;7.65;100.00;98645.55;1678664;84;21035;-81
2022/01/01 05:41:52;;;;;;;2.70;2.50;;;;;;;7.65;100.00;98620.13;1708794;83;21383;-77
2022/01/01 05:44:17;;;;;;;3.55;2.33;;;;;;;7.64;100.00;98635.91;1667848;85;21463;-78
2022/01/01 05:46:43;;;;;;;2.50;2.30;;;;;;;7.62;100.00;98646.08;1650717;85;21016;-88
2022/01/01 05:49:09;;;;;;;2.83;2.45;;;;;;;7.61;100.00;98649.81;1691158;84;21108;-88
2022/01/01 05:51:36;;;;;;;2.20;2.00;;;;;;;7.60;100.00;98643.36;1692827;84;21083;-89
2022/01/01 05:54:02;;;;;;;2.20;1.98;;;;;;;7.59;100.00;98662.63;1692916;84;21141;-89
2022/01/01 05:56:28;;;;;;;2.47;2.27;;;;;;;7.56;100.00;98659.66;1668930;84;21071;-87
2022/01/01 05:58:55;;;;;;;2.00;1.80;;;;;;;7.55;100.00;98666.87;1687989;84;20973;-86
2022/01/01 06:01:21;;;;;;;2.15;1.95;;;;;;;7.54;100.00;98666.59;1695885;84;20936;-81
2022/01/01 06:03:48;;;;;;;1.90;1.80;;;;;;;7.54;100.00;98686.66;1707276;81;20924;-88
2022/01/01 06:06:15;;;;;;;1.80;1.70;;;;;;;7.52;100.00;98686.12;1680038;85;21956;-89
2022/01/01 06:08:41;;;;;;;1.90;1.80;;;;;;;7.49;100.00;98702.66;1683644;83;21002;-87
2022/01/01 06:11:07;;;;;;;2.17;2.02;;;;;;;7.47;100.00;98700.79;1700126;84;21074;-89
2022/01/01 06:13:34;;;;;;;2.22;2.02;;;;;;;7.44;100.00;98696.73;1710205;84;20918;-84
2022/01/01 06:16:01;;;;;;;3.12;2.60;;;;;;;7.44;100.00;98707.44;1708510;81;21093;-87
2022/01/01 06:18:28;;;;;;;2.00;1.85;;;;;;;7.37;100.00;98722.09;1665504;84;21881;-84
2022/01/01 06:20:58;;;;;;;2.00;1.90;;;;;;;7.36;100.00;98705.76;1677564;84;21011;-86
2022/01/01 06:23:28;;;;;;;2.27;2.02;;;;;;;7.34;100.00;98726.06;1678680;85;21092;-85
2022/01/01 06:26:00;;;;;;;2.65;2.42;;;;;;;7.31;100.00;98722.56;1677662;85;21526;-84
2022/01/01 06:28:29;;;;;;;2.50;1.92;;;;;;;7.31;100.00;98730.59;1687605;84;21029;-84
2022/01/01 06:30:59;;;;;;;3.42;1.90;;;;;;;7.31;100.00;98737.27;1687095;84;20954;-80
2022/01/01 06:33:27;;;;;;;2.45;2.25;;;;;;;7.30;100.00;98742.34;1707389;84;21053;-86
2022/01/01 06:35:54;;;;;;;2.02;1.80;;;;;;;7.27;100.00;98740.70;1711209;83;21015;-86
2022/01/01 06:38:21;;;;;;;2.67;2.20;;;;;;;7.20;100.00;98756.13;1683270;84;21063;-84
2022/01/01 06:40:50;;;;;;;2.22;2.08;;;;;;;7.12;100.00;98765.41;1663644;86;21004;-84
2022/01/01 06:43:18;;;;;;;1.95;1.80;;;;;;;7.08;100.00;98770.17;1649596;84;21114;-81
2022/01/01 06:45:44;;;;;;;2.20;2.00;;;;;;;7.04;100.00;98761.03;1706771;84;20970;-88
2022/01/01 06:48:11;;;;;;;1.77;1.67;;;;;;;6.98;100.00;98762.84;1708146;84;21048;-87
2022/01/01 06:50:37;;;;;;;1.82;1.72;;;;;;;6.96;100.00;98765.75;1693930;84;21111;-88
2022/01/01 06:53:08;;;;;;;1.92;1.82;;;;;;;6.94;100.00;98791.13;1685024;84;21201;-87
2022/01/01 06:55:34;;;;;;;1.77;1.62;;;;;;;6.91;100.00;98788.92;1707260;82;21131;-88
2022/01/01 06:58:02;;;;;;;1.67;1.57;;;;;;;6.91;100.00;98775.04;1686386;84;21010;-86
2022/01/01 07:00:29;;;;;;;1.70;1.50;;;;;;;6.93;100.00;98782.82;1700184;83;21000;-91
2022/01/01 07:02:55;;;;;;;1.57;1.47;;;;;;;6.91;100.00;98786.25;1666587;84;21068;-90
2022/01/01 07:05:22;;;;;;;1.62;1.52;;;;;;;6.91;100.00;98791.59;1620954;87;21071;-83
2022/01/01 07:07:49;;;;;;;1.50;1.40;;;;;;;6.88;100.00;98790.25;1633174;87;21108;-82
2022/01/01 07:10:17;;;;;;;1.40;1.30;;;;;;;6.86;100.00;98814.25;1643154;85;21525;-81
2022/01/01 07:12:44;;;;;;;1.30;1.20;;;;;;;6.87;100.00;98804.66;1686631;84;21024;-88
2022/01/01 07:15:15;;;;;;;1.12;1.12;;;;;;;6.88;100.00;98808.14;1681592;84;21047;-86
2022/01/01 07:17:44;;;;;;;1.32;1.30;;;;;;;6.88;100.00;98805.47;1699319;84;21098;-85
2022/01/01 07:20:11;;;;;;;1.40;1.30;;;;;;;6.88;100.00;98826.85;1680308;85;21148;-84
2022/01/01 07:22:43;;;;;;;3.20;1.45;;;;;;;6.85;100.00;98817.48;1680196;85;20928;-87
2022/01/01 07:25:10;;;;;;;1.70;1.57;;;;;;;6.86;100.00;98818.26;1693411;84;20975;-83
2022/01/01 07:27:36;;;;;;;1.32;1.22;;;;;;;6.86;100.00;98824.41;1682784;84;21106;-81
2022/01/01 07:30:05;;;;;;;2.27;1.40;;;;;;;6.86;100.00;98827.61;1708553;83;21041;-80
2022/01/01 07:32:39;;;;;;;1.40;1.30;;;;;;;6.86;100.00;98835.63;1708704;84;21156;-81
2022/01/01 07:35:08;;;;;;;1.42;1.17;;;;;;;6.81;100.00;98834.25;1707858;83;21024;-82
2022/01/01 07:37:34;;;;;;;1.57;1.47;;;;;;;6.76;100.00;98824.27;1687156;84;21011;-81
2022/01/01 07:40:00;;;;;;;1.65;1.30;;;;;;;6.73;100.00;98834.66;1708395;84;21594;-81
2022/01/01 07:42:27;;;;;;;1.45;1.32;;;;;;;6.72;100.00;98833.84;1697912;84;21580;-83
2022/01/01 07:44:53;;;;;;;1.75;1.40;;;;;;;6.74;100.00;98850.97;1685725;84;21946;-76
2022/01/01 07:47:19;;;;;;;1.40;1.30;;;;;;;6.71;100.00;98840.27;1708893;83;20921;-83
2022/01/01 07:49:49;;;;;;;2.98;1.27;;;;;;;6.67;100.00;98837.77;1687874;84;21094;-79
2022/01/01 07:52:15;;;;;;;1.27;1.20;;;;;;;6.69;100.00;98837.54;1709923;83;21339;-81
2022/01/01 07:54:42;;;;;;;1.60;1.50;;;;;;;6.69;100.00;98849.04;1699539;83;21469;-81
2022/01/01 07:57:08;;;;;;;1.57;1.47;;;;;;;6.68;100.00;98844.74;1695861;83;20994;-80
2022/01/01 07:59:34;;;;;;;1.47;1.37;;;;;;;6.69;100.00;98839.69;1709281;84;21022;-80
2022/01/01 08:02:01;;;;;;;1.52;1.27;;;;;;;6.67;100.00;98853.80;1708813;83;20997;-82
2022/01/01 08:04:29;;;;;;;1.30;1.20;;;;;;;6.69;100.00;98842.36;1686818;84;21088;-81
2022/01/01 08:07:01;;;;;;;2.98;1.60;;;;;;;6.69;100.00;98842.36;1686512;84;21549;-85
2022/01/01 08:09:28;;;;;;;;;;;;;;;6.69;100.00;98845.55;1710906;83;21113;-81
2022/01/01 08:11:56;;;;;;;1.45;1.30;;;;;;;6.70;100.00;98835.97;1702184;83;20572;-84
2022/01/01 08:14:25;;;;;;;1.70;1.60;;;;;;;6.72;100.00;98851.20;1679144;84;21074;-83
2022/01/01 08:16:57;;;;;;;3.45;2.27;;;;;;;6.73;100.00;98834.66;1671704;84;21042;-83
2022/01/01 08:19:24;;;;;;;2.53;1.80;;;;;;;6.72;100.00;98843.72;1697938;84;21040;-80
2022/01/01 08:21:53;;;;;;;2.30;1.87;;;;;;;6.69;100.00;98851.70;1682945;83;20947;-83
2022/01/01 08:24:21;;;;;;;1.75;1.65;;;;;;;6.71;100.00;98847.47;1697751;84;21054;-81
2022/01/01 08:26:48;;;;;;;1.75;1.65;;;;;;;6.67;100.00;98852.47;1708590;83;20999;-85
2022/01/01 08:29:14;;;;;;;1.47;1.35;;;;;;;6.66;100.00;98843.38;1708616;84;21033;-80
2022/01/01 08:31:42;;;;;;;1.27;1.17;;;;;;;6.63;100.00;98858.55;1707206;83;21517;-79
2022/01/01 08:34:10;;;;;;;1.40;1.00;;;;;;;6.60;100.00;98851.03;1663895;84;21078;-81
2022/01/01 08:36:38;;;;;;;0.88;0.88;;;;;;;6.60;100.00;98881.23;1708549;84;21125;-79
2022/01/01 08:39:08;;;;;;;1.20;1.10;;;;;;;6.60;100.00;98877.22;1708581;84;21053;-79
2022/01/01 08:41:38;;;;;;;1.02;1.00;;;;;;;6.58;100.00;98873.45;1685878;84;20999;-79
2022/01/01 08:44:06;;;;;;;2.30;2.10;;;;;;;6.56;100.00;98876.09;1693257;84;21656;-80
2022/01/01 08:46:34;;;;;;;1.00;0.90;;;;;;;6.54;100.00;98884.87;1708684;83;21068;-85
2022/01/01 08:49:02;;;;;;;0.75;0.75;;;;;;;6.52;100.00;98874.42;1676615;84;21713;-80
2022/01/01 08:51:30;;;;;;;0.78;0.78;;;;;;;6.51;100.00;98892.86;1690043;83;20951;-79
2022/01/01 08:53:57;;;;;;;0.93;0.93;;;;;;;6.50;100.00;98885.89;1666409;85;21166;-82
2022/01/01 08:56:32;;;;;;;1.07;1.00;;;;;;;6.48;100.00;98896.52;1693497;84;21006;-81
2022/01/01 08:59:00;;;;;;;0.93;0.93;;;;;;;6.48;100.00;98889.84;1708288;83;21177;-77
2022/01/01 09:01:27;;;;;;;0.82;0.82;;;;;;;6.48;100.00;98887.98;1690440;84;21010;-78
2022/01/01 09:03:56;;;;;;;0.90;0.90;;;;;;;6.49;100.00;98880.25;1680256;85;21012;-79
2022/01/01 09:06:22;;;;;;;1.75;1.35;;;;;;;6.49;100.00;98886.94;1680104;84;21012;-79
2022/01/01 09:08:50;;;;;;;1.45;1.15;;;;;;;6.50;100.00;98884.55;1678758;84;21043;-80
2022/01/01 09:11:24;;;;;;;1.75;1.00;;;;;;;6.48;100.00;98901.34;1691764;83;20968;-80
2022/01/01 09:13:50;;;;;;;0.80;0.80;;;;;;;6.47;100.00;98894.40;1649694;86;21545;-86
2022/01/01 09:16:18;;;;;;;0.90;0.90;;;;;;;6.47;100.00;98886.91;1708022;84;21046;-87
2022/01/01 09:18:47;;;;;;;1.55;1.20;;;;;;;6.45;100.00;98896.49;1659108;85;20987;-79
2022/01/01 09:21:14;;;;;;;0.88;0.88;;;;;;;6.46;100.00;98894.63;1685577;83;35764;-83
2022/01/01 09:23:46;;;;;;;0.90;0.90;;;;;;;6.44;100.00;98894.86;1686379;85;21103;-81
2022/01/01 09:26:17;;;;;;;0.78;0.78;;;;;;;6.44;100.00;98890.86;1667767;85;20975;-84
2022/01/01 09:28:45;;;;;;;0.98;0.93;;;;;;;6.45;100.00;98883.66;1674214;83;21102;-83
2022/01/01 09:31:14;;;;;;;0.90;0.90;;;;;;;6.44;100.00;98891.38;1685304;83;21066;-80
2022/01/01 09:33:42;;;;;;;2.83;1.50;;;;;;;6.44;100.00;98899.39;1706599;83;20983;-81
2022/01/01 09:36:10;;;;;;;1.45;1.35;;;;;;;6.44;100.00;98910.08;1669281;84;21162;-81
2022/01/01 09:38:40;;;;;;;1.22;1.12;;;;;;;6.45;100.00;98894.34;1690660;84;21034;-81
2022/01/01 09:41:09;;;;;;;1.35;1.10;;;;;;;6.45;100.00;98897.83;1703569;83;21132;-84
2022/01/01 09:43:35;;;;;;;1.45;1.22;;;;;;;6.45;100.00;98892.48;1698104;83;21521;-79
2022/01/01 09:46:06;;;;;;;1.30;1.20;;;;;;;6.48;100.00;98930.72;1720860;83;21016;-82
2022/01/01 09:48:32;;;;;;;1.27;1.07;;;;;;;6.51;100.00;98904.06;1721182;83;21831;-85
2022/01/01 09:51:08;;;;;;;0.90;0.90;;;;;;;6.52;100.00;98909.70;1726577;83;20999;-82
2022/01/01 09:53:38;;;;;;;1.20;1.10;;;;;;;6.52;100.00;98918.49;1726423;82;21126;-86
2022/01/01 09:56:10;;;;;;;1.00;1.00;;;;;;;6.53;100.00;98896.59;1700766;83;21515;-86
2022/01/01 09:58:39;;;;;;;2.30;1.15;;;;;;;6.56;100.00;98896.13;1701337;83;20986;-81
2022/01/01 10:01:07;;;;;;;0.88;0.88;;;;;;;6.60;100.00;98913.81;1727113;83;21187;-84
2022/01/01 10:03:43;;;;;;;1.25;0.98;;;;;;;6.58;100.00;98910.85;1695430;83;21018;-81
2022/01/01 10:06:13;;;;;;;0.88;0.88;;;;;;;6.61;100.00;98901.56;1708491;83;21107;-79
2022/01/01 10:08:48;;;;;;;1.10;1.10;;;;;;;6.66;100.00;98899.48;1693668;83;21565;-88
2022/01/01 10:11:20;;;;;;;1.00;1.00;;;;;;;6.65;100.00;98908.03;1691299;83;21194;-86
2022/01/01 10:13:47;;;;;;;1.30;1.20;;;;;;;6.65;100.00;98893.33;1713463;83;21173;-85
2022/01/01 10:16:14;;;;;;;2.25;1.50;;;;;;;6.62;100.00;98906.38;1676321;84;21505;-88
2022/01/01 10:18:52;;;;;;;1.20;1.20;;;;;;;6.60;100.00;98901.80;1711095;83;21571;-85
2022/01/01 10:21:34;;;;;;;1.90;1.40;;;;;;;6.56;100.00;98902.29;1695617;83;21038;-83
2022/01/01 10:23:56;;;;;;;1.55;1.42;;;;;;;6.53;100.00;98895.27;1699213;83;20956;-90
2022/01/01 10:29:28;;;;;;;1.42;1.30;;;;;;;6.49;100.00;98902.15;1720418;83;20916;-77
2022/01/01 10:32:10;;;;;;;2.55;1.92;;;;;;;6.46;100.00;98895.44;1691297;83;20965;-73
2022/01/01 10:34:45;;;;;;;2.25;2.15;;;;;;;6.45;100.00;98912.52;1694230;84;21072;-82
2022/01/01 10:37:17;;;;;;;1.50;1.40;;;;;;;6.46;100.00;98895.97;1696827;83;21668;-81
2022/01/01 10:39:51;;;;;;;1.72;1.40;;;;;;;6.48;100.00;98901.86;1699797;83;21015;-82
2022/01/01 10:42:20;;;;;;;2.12;1.77;;;;;;;6.49;100.00;98924.85;1714810;83;21026;-85
2022/01/01 10:44:48;;;;;;;1.20;1.10;;;;;;;6.50;100.00;98905.92;1700048;83;21053;-79
2022/01/01 10:47:20;;;;;;;2.47;1.57;;;;;;;6.54;100.00;98906.23;1687686;83;21028;-80
2022/01/01 10:52:24;;;;;;;2.52;2.10;;;;;;;6.60;100.00;98899.12;1699378;83;21141;-79
2022/01/01 10:55:03;;;;;;;3.15;1.42;;;;;;;6.63;100.00;98907.45;1707971;83;20953;-79
2022/01/01 10:57:39;;;;;;;2.98;1.52;;;;;;;6.67;100.00;98917.92;1745579;81;20987;-80
2022/01/01 11:00:22;;;;;;;1.67;1.57;;;;;;;6.70;100.00;98904.63;1700473;83;21091;-83
2022/01/01 11:02:56;;;;;;;2.00;1.35;;;;;;;6.70;100.00;98909.45;1698333;83;21076;-80
2022/01/01 11:05:28;;;;;;;2.25;1.75;;;;;;;6.71;100.00;98923.09;1718768;82;22081;-82
2022/01/01 11:07:55;;;;;;;2.47;2.00;;;;;;;6.71;100.00;98906.25;1695085;83;21039;-83
2022/01/01 11:10:24;;;;;;;2.52;1.47;;;;;;;6.71;100.00;98912.41;1719944;82;21243;-84
2022/01/01 11:12:54;;;;;;;3.85;1.62;;;;;;;6.72;100.00;98919.87;1720422;83;21086;-83
2022/01/01 11:15:24;;;;;;;2.72;1.72;;;;;;;6.72;100.00;98909.18;1742955;82;21005;-83
2022/01/01 11:17:56;;;;;;;;;;;;;;;6.74;100.00;98903.89;1721888;83;20960;-84
2022/01/01 11:20:25;;;;;;;1.30;1.20;;;;;;;6.78;100.00;98932.27;1719240;83;20520;-82
2022/01/01 11:22:54;;;;;;;3.15;1.30;;;;;;;6.81;100.00;98933.91;1743625;82;20971;-82
2022/01/01 11:25:24;;;;;;;2.35;1.40;;;;;;;6.82;100.00;98924.04;1719219;83;20994;-85
2022/01/01 11:27:53;;;;;;;1.42;1.27;;;;;;;6.84;100.00;98920.61;1718994;83;21065;-83
2022/01/01 11:30:19;;;;;;;1.72;1.20;;;;;;;6.87;100.00;98918.25;1744041;81;21513;-81
2022/01/01 11:32:53;;;;;;;1.30;1.20;;;;;;;6.91;100.00;98914.02;1719121;83;20979;-85
2022/01/01 11:35:23;;;;;;;4.37;1.90;;;;;;;6.92;100.00;98913.50;1718958;83;20944;-81
2022/01/01 11:37:59;;;;;;;1.85;1.60;;;;;;;6.92;100.00;98915.66;1698758;83;21040;-80
2022/01/01 11:40:26;;;;;;;2.58;1.70;;;;;;;6.97;100.00;98925.61;1743541;82;21039;-78
2022/01/01 11:42:55;;;;;;;1.60;1.50;;;;;;;6.98;100.00;98920.03;1719123;83;21428;-81
2022/01/01 11:45:45;;;;;;;2.25;1.62;;;;;;;6.98;100.00;98922.70;1718889;83;21144;-84